Time;durP1;ratioP1;P1;durP2;ratioP2;P2;SDS_P1;SDS_P2;PMS_P1;PMS_P2;Temp;Humidity;BMP_temperature;BMP_pressure;BME280_temperature;BME280_humidity;BME280_pressure;Samples;Min_cycle;Max_cycle;Signal;HPM_P1;HPM_P2
2022/05/26 00:00:22;;;;;;;15.43;9.45;;;12.80;99.90;;;;;;4982945;28;20221;-46
2022/05/26 00:02:50;;;;;;;9.05;8.20;;;12.90;99.90;;;;;;4981537;28;20225;-47
2022/05/26 00:05:17;;;;;;;8.93;8.18;;;13.00;99.90;;;;;;4983252;28;20278;-48
2022/05/26 00:07:44;;;;;;;8.88;8.18;;;13.00;99.90;;;;;;4982807;28;20210;-47
2022/05/26 00:10:12;;;;;;;9.07;8.27;;;12.90;99.90;;;;;;4969487;28;20213;-45
2022/05/26 00:12:39;;;;;;;10.23;9.15;;;13.00;99.90;;;;;;4986537;28;20241;-45
2022/05/26 00:15:07;;;;;;;8.80;8.02;;;13.10;99.90;;;;;;4982593;28;20212;-42
2022/05/26 00:17:35;;;;;;;9.40;8.60;;;13.20;99.90;;;;;;5000415;28;20527;-41
2022/05/26 00:20:05;;;;;;;10.32;8.82;;;13.20;99.90;;;;;;5001565;28;20232;-44
2022/05/26 00:22:33;;;;;;;9.63;8.82;;;13.00;99.90;;;;;;5002363;28;20303;-44
2022/05/26 00:25:00;;;;;;;9.80;8.85;;;12.90;99.90;;;;;;5000555;28;20257;-43
2022/05/26 00:27:27;;;;;;;10.68;9.38;;;13.10;99.90;;;;;;5001322;28;20220;-46
2022/05/26 00:29:54;;;;;;;9.63;8.73;;;13.20;99.90;;;;;;5003536;28;20220;-51
2022/05/26 00:32:22;;;;;;;8.52;7.72;;;13.30;99.90;;;;;;5007459;28;20299;-45
2022/05/26 00:34:49;;;;;;;8.18;7.20;;;13.30;99.90;;;;;;5006403;28;20272;-50
2022/05/26 00:37:17;;;;;;;8.07;7.25;;;13.30;99.90;;;;;;5003649;28;20379;-44
2022/05/26 00:39:44;;;;;;;9.98;8.98;;;13.40;99.90;;;;;;5002029;28;20209;-44
2022/05/26 00:42:12;;;;;;;6.75;6.15;;;13.40;99.90;;;;;;4999721;28;20248;-42
2022/05/26 00:44:39;;;;;;;9.32;7.40;;;13.50;99.90;;;;;;4998998;28;20247;-42
2022/05/26 00:47:17;;;;;;;7.80;7.00;;;13.50;99.90;;;;;;4998288;28;20544;-42
2022/05/26 00:49:58;;;;;;;7.20;6.47;;;13.90;99.90;;;;;;4998880;28;20600;-42
2022/05/26 00:52:45;;;;;;;5.82;5.32;;;14.00;99.90;;;;;;4997712;28;20582;-46
2022/05/26 00:55:21;;;;;;;6.38;5.80;;;14.00;99.90;;;;;;4998617;28;20220;-47
2022/05/26 00:58:07;;;;;;;7.15;6.30;;;14.10;99.90;;;;;;4999273;28;20447;-45
2022/05/26 01:00:36;;;;;;;5.68;5.00;;;14.10;99.90;;;;;;4999176;28;20309;-47
2022/05/26 01:03:16;;;;;;;5.80;5.40;;;14.20;99.90;;;;;;4998599;28;20537;-41
2022/05/26 01:05:56;;;;;;;5.57;5.05;;;14.20;99.90;;;;;;4998836;28;20205;-46
2022/05/26 01:08:37;;;;;;;5.85;5.35;;;14.30;99.90;;;;;;4998912;28;20205;-43
2022/05/26 01:11:07;;;;;;;5.85;5.15;;;14.50;99.90;;;;;;4998900;28;20579;-44
2022/05/26 01:13:42;;;;;;;9.38;5.00;;;14.50;99.90;;;;;;4998167;28;20303;-42
2022/05/26 01:16:17;;;;;;;5.07;4.57;;;14.60;99.90;;;;;;4999122;28;20408;-49
2022/05/26 01:19:03;;;;;;;5.82;5.15;;;14.50;99.90;;;;;;4998288;28;20539;-41
2022/05/26 01:21:45;;;;;;;4.60;4.20;;;14.40;99.90;;;;;;4998569;28;20225;-44
2022/05/26 01:24:38;;;;;;;5.60;5.20;;;14.40;99.90;;;;;;4997323;28;20205;-45
2022/05/26 01:27:24;;;;;;;4.85;4.45;;;14.50;99.90;;;;;;4998176;28;20709;-44
2022/05/26 01:30:07;;;;;;;5.05;4.57;;;14.50;99.90;;;;;;4998282;28;20197;-45
2022/05/26 01:33:06;;;;;;;6.43;4.95;;;14.20;99.90;;;;;;4998394;28;20574;-42
2022/05/26 01:36:06;;;;;;;5.15;4.65;;;14.20;99.90;;;;;;4998373;28;20204;-48
2022/05/26 01:38:56;;;;;;;4.90;4.40;;;14.00;99.90;;;;;;4998499;28;20206;-45
2022/05/26 01:41:44;;;;;;;6.05;5.00;;;13.90;99.90;;;;;;4997996;28;20325;-42
2022/05/26 01:44:50;;;;;;;5.20;4.80;;;13.80;99.90;;;;;;4998971;28;20201;-42
2022/05/26 01:47:51;;;;;;;5.75;5.22;;;13.70;99.90;;;;;;4998771;28;20205;-43
2022/05/26 01:50:43;;;;;;;4.82;4.53;;;13.50;99.90;;;;;;4998192;28;20465;-40
2022/05/26 01:53:25;;;;;;;5.25;4.85;;;13.40;99.90;;;;;;4997993;28;20239;-43
2022/05/26 01:56:09;;;;;;;4.50;4.20;;;13.30;99.90;;;;;;4997596;28;20244;-42
2022/05/26 01:58:41;;;;;;;4.60;3.92;;;13.20;99.90;;;;;;4997709;28;20213;-42
2022/05/26 02:01:13;;;;;;;4.45;4.07;;;13.30;99.90;;;;;;4997501;28;20300;-43
2022/05/26 02:03:45;;;;;;;4.90;4.57;;;13.30;99.90;;;;;;4998027;28;20247;-46
2022/05/26 02:06:35;;;;;;;6.32;5.65;;;13.30;99.90;;;;;;4998249;28;20532;-45
2022/05/26 02:09:13;;;;;;;6.82;5.25;;;13.20;99.90;;;;;;4997528;28;20704;-48
2022/05/26 02:12:05;;;;;;;6.10;5.50;;;13.10;99.90;;;;;;4996958;28;20237;-44
2022/05/26 02:14:45;;;;;;;6.60;5.60;;;13.00;99.90;;;;;;4978525;28;20276;-44
2022/05/26 02:17:31;;;;;;;6.32;5.72;;;13.10;99.90;;;;;;4998000;28;20244;-45
2022/05/26 02:20:15;;;;;;;5.30;4.90;;;12.80;99.90;;;;;;4997675;28;20236;-46
2022/05/26 02:22:51;;;;;;;6.28;5.75;;;12.80;99.90;;;;;;4997587;28;20293;-45
2022/05/26 02:25:21;;;;;;;5.65;5.15;;;12.70;99.90;;;;;;4997680;28;20354;-44
2022/05/26 02:27:52;;;;;;;6.15;5.63;;;12.70;99.90;;;;;;4997306;28;20508;-48
2022/05/26 02:30:25;;;;;;;6.05;5.55;;;12.70;99.90;;;;;;4997983;28;20212;-46
2022/05/26 02:32:54;;;;;;;5.28;4.85;;;12.70;99.90;;;;;;4997784;28;20221;-41
2022/05/26 02:35:31;;;;;;;9.20;6.38;;;12.70;99.90;;;;;;4996705;28;20243;-44
2022/05/26 02:38:09;;;;;;;5.57;5.15;;;12.60;99.90;;;;;;4997166;28;20212;-42
2022/05/26 02:40:37;;;;;;;6.30;5.80;;;12.60;99.90;;;;;;4979506;28;20225;-42
2022/05/26 02:43:17;;;;;;;10.45;5.70;;;12.70;99.90;;;;;;4989448;28;20239;-42
2022/05/26 02:46:03;;;;;;;6.03;5.35;;;12.60;99.90;;;;;;4982337;28;20239;-44
2022/05/26 02:48:56;;;;;;;6.07;5.32;;;12.60;99.90;;;;;;4977163;28;20628;-42
2022/05/26 02:52:11;;;;;;;6.13;5.55;;;12.70;99.90;;;;;;4976655;28;20224;-44
2022/05/26 02:54:46;;;;;;;7.53;6.25;;;12.80;99.90;;;;;;4972256;28;20217;-48
2022/05/26 02:57:43;;;;;;;5.72;5.32;;;12.60;99.90;;;;;;4977029;28;20276;-42
2022/05/26 03:00:33;;;;;;;7.07;6.45;;;12.50;99.90;;;;;;4976884;28;20263;-40
2022/05/26 03:03:12;;;;;;;5.63;5.25;;;12.60;99.90;;;;;;4976474;28;20234;-43
2022/05/26 03:05:45;;;;;;;7.00;6.38;;;12.60;99.90;;;;;;4976365;28;20209;-46
2022/05/26 03:08:16;;;;;;;7.10;6.50;;;12.60;99.90;;;;;;4976930;28;20504;-41
2022/05/26 03:10:49;;;;;;;6.60;6.00;;;12.70;99.90;;;;;;4976392;28;20523;-44
2022/05/26 03:13:17;;;;;;;6.35;5.70;;;12.60;99.90;;;;;;4976876;28;20452;-44
2022/05/26 03:15:52;;;;;;;5.13;4.63;;;12.70;99.90;;;;;;4977086;28;20539;-50
2022/05/26 03:18:20;;;;;;;8.18;4.78;;;12.70;99.90;;;;;;4977065;28;20549;-44
2022/05/26 03:20:47;;;;;;;8.90;5.30;;;12.90;99.90;;;;;;4976658;28;20292;-46
2022/05/26 03:23:14;;;;;;;8.60;5.30;;;13.00;99.90;;;;;;4976882;28;20235;-41
2022/05/26 03:25:47;;;;;;;5.93;5.32;;;13.00;99.90;;;;;;4976833;28;20205;-47
2022/05/26 03:28:15;;;;;;;6.07;4.70;;;13.00;99.90;;;;;;4977125;28;20213;-45
2022/05/26 03:30:42;;;;;;;4.55;4.25;;;13.00;99.90;;;;;;4976529;28;20214;-45
2022/05/26 03:33:09;;;;;;;4.50;4.15;;;13.10;99.90;;;;;;4976681;28;20420;-43
2022/05/26 03:41:08;;;;;;;4.50;3.95;;;13.40;99.90;;;;;;4985283;28;20231;-41
2022/05/26 03:43:43;;;;;;;3.50;3.20;;;13.70;99.90;;;;;;4966115;28;20210;-43
2022/05/26 03:46:11;;;;;;;4.53;4.13;;;14.00;99.90;;;;;;4976419;28;20204;-40
2022/05/26 03:48:40;;;;;;;4.72;4.43;;;14.20;99.90;;;;;;4976861;28;20206;-43
2022/05/26 03:51:08;;;;;;;4.00;3.63;;;14.60;99.90;;;;;;4976326;28;20628;-43
2022/05/26 03:53:35;;;;;;;3.30;3.05;;;15.10;99.90;;;;;;4976541;28;20281;-43
2022/05/26 03:56:04;;;;;;;4.53;4.13;;;15.40;99.90;;;;;;4976467;28;20293;-45
2022/05/26 03:58:32;;;;;;;6.88;3.70;;;15.60;99.90;;;;;;4976025;28;20210;-47
2022/05/26 04:01:07;;;;;;;7.72;3.35;;;15.80;99.90;;;;;;4983156;28;20604;-43
2022/05/26 04:03:35;;;;;;;4.45;3.63;;;15.80;99.90;;;;;;4989202;28;20209;-42
2022/05/26 04:06:02;;;;;;;3.92;3.30;;;15.70;99.90;;;;;;4996174;28;20382;-45
2022/05/26 04:08:29;;;;;;;4.18;3.17;;;15.50;99.90;;;;;;4997218;28;20524;-46
2022/05/26 04:10:57;;;;;;;4.65;3.42;;;15.20;99.90;;;;;;4996724;28;20217;-43
2022/05/26 04:13:24;;;;;;;4.32;3.40;;;15.10;99.90;;;;;;4996050;28;20243;-41
2022/05/26 04:15:53;;;;;;;3.72;2.47;;;15.30;99.90;;;;;;4995612;28;20210;-41
2022/05/26 04:18:20;;;;;;;3.72;3.20;;;15.40;99.90;;;;;;4996857;28;20216;-40
2022/05/26 04:20:48;;;;;;;5.95;3.55;;;15.50;99.90;;;;;;4999055;28;20529;-48
2022/05/26 04:23:15;;;;;;;2.33;2.10;;;15.50;99.90;;;;;;4996568;28;20419;-42
2022/05/26 04:25:42;;;;;;;2.30;2.20;;;15.50;99.90;;;;;;4990631;28;20242;-43
2022/05/26 04:28:09;;;;;;;6.68;3.05;;;15.60;99.90;;;;;;4996862;28;20216;-47
2022/05/26 04:30:37;;;;;;;2.85;2.65;;;15.70;99.90;;;;;;4995976;28;20522;-40
2022/05/26 04:33:05;;;;;;;4.35;2.40;;;15.70;99.90;;;;;;5006263;28;20261;-42
2022/05/26 04:35:35;;;;;;;2.17;2.08;;;15.50;99.90;;;;;;5011044;28;20226;-42
2022/05/26 04:38:03;;;;;;;3.72;2.25;;;15.50;99.90;;;;;;4998786;28;20248;-50
2022/05/26 04:40:30;;;;;;;3.05;2.67;;;15.40;99.90;;;;;;4998138;28;20207;-42
2022/05/26 04:42:57;;;;;;;2.22;1.90;;;15.50;99.90;;;;;;4998801;28;20226;-46
2022/05/26 04:45:25;;;;;;;2.50;2.30;;;15.70;99.90;;;;;;4999386;28;20573;-43
2022/05/26 04:47:52;;;;;;;2.65;2.45;;;15.80;99.90;;;;;;4999050;28;20203;-41
2022/05/26 04:50:21;;;;;;;4.38;3.00;;;15.90;99.90;;;;;;5000050;28;20206;-49
2022/05/26 04:52:48;;;;;;;3.00;2.80;;;16.00;99.90;;;;;;4998215;28;20274;-41
2022/05/26 04:55:17;;;;;;;5.80;3.65;;;16.10;99.90;;;;;;4998567;28;20444;-50
2022/05/26 04:57:44;;;;;;;6.25;2.58;;;16.30;99.90;;;;;;4998407;28;20282;-46
2022/05/26 05:00:14;;;;;;;2.40;2.20;;;16.70;99.90;;;;;;4998690;28;20287;-43
2022/05/26 05:02:42;;;;;;;3.83;2.40;;;17.20;99.90;;;;;;4998156;28;20498;-45
2022/05/26 05:05:10;;;;;;;2.20;2.00;;;17.60;99.90;;;;;;4997804;28;20415;-46
2022/05/26 05:07:38;;;;;;;2.50;1.73;;;18.00;99.90;;;;;;4998048;28;20777;-43
2022/05/26 05:10:06;;;;;;;2.10;1.90;;;18.50;99.90;;;;;;4997659;28;20420;-46
2022/05/26 05:12:33;;;;;;;3.37;3.07;;;19.00;99.90;;;;;;4998169;28;20680;-43
2022/05/26 05:15:03;;;;;;;2.60;2.30;;;19.40;99.90;;;;;;4999499;28;20414;-50
2022/05/26 05:17:30;;;;;;;3.70;2.97;;;19.70;99.90;;;;;;5003106;28;20457;-46
2022/05/26 05:19:58;;;;;;;2.07;1.87;;;19.70;99.90;;;;;;5002075;28;20518;-44
2022/05/26 05:22:34;;;;;;;1.97;1.60;;;19.80;99.90;;;;;;5000728;28;20865;-42
2022/05/26 05:25:07;;;;;;;4.60;1.97;;;20.00;99.90;;;;;;4997756;28;20438;-43
2022/05/26 05:27:53;;;;;;;3.50;1.97;;;20.10;99.90;;;;;;4997942;28;20444;-44
2022/05/26 05:30:32;;;;;;;2.47;2.23;;;20.10;99.90;;;;;;4997046;28;20468;-42
2022/05/26 05:33:11;;;;;;;1.90;1.80;;;19.80;99.90;;;;;;4998190;28;20462;-46
2022/05/26 05:35:46;;;;;;;1.40;1.20;;;19.80;99.90;;;;;;4998251;28;20439;-47
2022/05/26 05:38:15;;;;;;;1.80;1.67;;;19.60;99.90;;;;;;4997716;28;20635;-41
2022/05/26 05:40:42;;;;;;;1.47;1.37;;;19.50;99.90;;;;;;4997383;28;20623;-44
2022/05/26 05:43:10;;;;;;;3.70;2.00;;;19.40;99.90;;;;;;4997240;28;20438;-48
2022/05/26 05:45:39;;;;;;;3.67;2.47;;;19.50;99.90;;;;;;4997788;28;20424;-41
2022/05/26 05:48:08;;;;;;;1.97;1.43;;;19.40;99.90;;;;;;4997589;28;20414;-46
2022/05/26 05:50:35;;;;;;;1.80;1.30;;;19.40;99.90;;;;;;4997728;28;20686;-49
2022/05/26 05:53:02;;;;;;;1.50;1.40;;;19.50;99.90;;;;;;4997477;28;20433;-45
2022/05/26 05:55:31;;;;;;;2.63;2.17;;;19.70;99.90;;;;;;4997158;28;20427;-42
2022/05/26 05:57:59;;;;;;;2.70;2.50;;;20.10;99.90;;;;;;4997199;28;20509;-43
2022/05/26 06:00:26;;;;;;;3.13;2.83;;;20.50;99.90;;;;;;4996820;28;20790;-42
2022/05/26 06:02:56;;;;;;;2.13;1.93;;;20.70;99.90;;;;;;4997066;28;20481;-47
2022/05/26 06:05:24;;;;;;;2.40;1.97;;;20.70;99.90;;;;;;4997009;28;20444;-44
2022/05/26 06:07:52;;;;;;;3.40;2.83;;;20.60;99.90;;;;;;4997624;28;20446;-43
2022/05/26 06:10:20;;;;;;;2.47;2.27;;;20.70;99.90;;;;;;4998622;28;20648;-44
2022/05/26 06:12:47;;;;;;;3.00;2.77;;;20.70;99.90;;;;;;4997679;28;20826;-41
2022/05/26 06:15:15;;;;;;;1.70;1.60;;;20.70;99.90;;;;;;4996757;28;20518;-46
2022/05/26 06:17:42;;;;;;;2.50;2.30;;;20.50;99.90;;;;;;4996902;28;20658;-43
2022/05/26 06:20:11;;;;;;;2.13;1.93;;;20.50;99.90;;;;;;4996265;28;20803;-43
2022/05/26 06:22:43;;;;;;;2.60;2.10;;;20.20;99.90;;;;;;4995617;28;20482;-47
2022/05/26 06:25:12;;;;;;;2.00;1.90;;;20.20;99.90;;;;;;4999216;28;20420;-50
2022/05/26 06:30:30;;;;;;;2.30;1.87;;;20.40;99.90;;;;;;4997421;28;20413;-44
2022/05/26 06:38:42;;;;;;;5.20;2.10;;;21.80;99.90;;;;;;4996875;28;20514;-45
2022/05/26 06:44:00;;;;;;;2.00;1.80;;;22.20;99.90;;;;;;4988474;28;20403;-49
2022/05/26 06:46:27;;;;;;;2.33;2.13;;;22.30;99.90;;;;;;4994777;28;20482;-45
2022/05/26 06:48:55;;;;;;;3.80;3.50;;;22.70;99.90;;;;;;4996132;28;20448;-48
2022/05/26 06:51:26;;;;;;;5.20;4.37;;;22.90;99.90;;;;;;4985321;28;20449;-48
2022/05/26 06:53:53;;;;;;;1.63;1.30;;;23.10;99.90;;;;;;4977629;28;20442;-43
2022/05/26 06:56:21;;;;;;;2.80;2.57;;;23.10;99.90;;;;;;4980168;28;20425;-43
2022/05/26 06:58:48;;;;;;;2.30;1.73;;;23.20;99.90;;;;;;4978595;28;20793;-46
2022/05/26 07:01:15;;;;;;;1.67;1.43;;;23.10;99.90;;;;;;4979598;28;20635;-44
2022/05/26 07:03:43;;;;;;;1.60;1.43;;;23.30;99.90;;;;;;4981758;28;20510;-43
2022/05/26 07:06:14;;;;;;;6.37;1.50;;;23.60;99.90;;;;;;4979145;28;20748;-48
2022/05/26 07:08:46;;;;;;;5.80;2.47;;;23.90;99.90;;;;;;4978873;28;20444;-46
2022/05/26 07:11:14;;;;;;;1.80;1.70;;;24.10;99.90;;;;;;4992200;28;20452;-42
2022/05/26 07:13:42;;;;;;;1.50;1.40;;;24.50;99.90;;;;;;4976859;28;20440;-44
2022/05/26 07:16:10;;;;;;;2.40;1.30;;;24.70;99.90;;;;;;4979696;28;20989;-46
2022/05/26 07:18:39;;;;;;;6.47;1.67;;;24.80;99.90;;;;;;4989256;28;20717;-41
2022/05/26 07:21:08;;;;;;;1.60;1.50;;;24.40;99.90;;;;;;4990504;28;20688;-48
2022/05/26 07:23:36;;;;;;;2.10;1.93;;;24.30;99.90;;;;;;4990860;28;20419;-44
2022/05/26 07:26:11;;;;;;;2.33;2.13;;;24.20;99.70;;;;;;4975370;28;20471;-44
2022/05/26 07:28:43;;;;;;;2.00;1.40;;;24.30;99.90;;;;;;4974936;28;20526;-47
2022/05/26 07:31:12;;;;;;;3.53;1.20;;;24.70;99.90;;;;;;4975109;28;20464;-43
2022/05/26 07:33:39;;;;;;;2.40;1.50;;;24.80;99.60;;;;;;4974754;28;20425;-48
2022/05/26 07:41:16;;;;;;;1.73;1.63;;;25.10;97.60;;;;;;4975869;28;20500;-43
2022/05/26 07:41:43;;;;;;;1.53;1.20;;;25.30;96.10;;;;;;4975196;28;20465;-48
2022/05/26 07:44:11;;;;;;;1.27;1.03;;;25.20;95.40;;;;;;4975125;28;20406;-45
2022/05/26 07:46:39;;;;;;;1.63;1.27;;;25.60;94.30;;;;;;4975911;28;20421;-46
2022/05/26 07:49:08;;;;;;;2.57;1.63;;;25.70;93.90;;;;;;4975822;28;20639;-45
2022/05/26 07:51:35;;;;;;;1.43;1.33;;;25.80;94.60;;;;;;4975788;28;20492;-44
2022/05/26 07:54:03;;;;;;;1.30;1.03;;;25.90;91.70;;;;;;4980049;28;20779;-44
2022/05/26 07:56:36;;;;;;;4.37;1.40;;;25.50;93.10;;;;;;4980268;28;20654;-44
2022/05/26 07:59:07;;;;;;;1.37;1.00;;;25.60;91.80;;;;;;4980369;28;20428;-46
2022/05/26 08:01:36;;;;;;;1.20;0.80;;;26.30;90.50;;;;;;4979816;28;20470;-45
2022/05/26 08:04:05;;;;;;;1.30;1.20;;;26.10;90.30;;;;;;4979993;28;20444;-44
2022/05/26 08:06:34;;;;;;;1.43;1.17;;;25.50;89.00;;;;;;4979724;28;20496;-43
2022/05/26 08:09:01;;;;;;;1.03;0.83;;;25.50;90.60;;;;;;4980618;28;20711;-42
2022/05/26 08:11:28;;;;;;;1.70;1.33;;;26.10;90.40;;;;;;4979717;28;20438;-45
2022/05/26 08:13:55;;;;;;;1.30;0.93;;;26.80;84.80;;;;;;4979997;28;20506;-46
2022/05/26 08:16:23;;;;;;;1.47;1.00;;;27.90;80.40;;;;;;4980252;28;20444;-47
2022/05/26 08:18:50;;;;;;;1.33;1.00;;;28.10;77.10;;;;;;4979802;28;20436;-45
2022/05/26 08:21:18;;;;;;;1.00;1.00;;;27.80;75.90;;;;;;4979686;28;20483;-43
2022/05/26 08:23:46;;;;;;;1.13;1.03;;;27.00;76.80;;;;;;4979440;28;20475;-43
2022/05/26 08:26:14;;;;;;;1.07;0.97;;;26.80;80.00;;;;;;4980186;28;20692;-45
2022/05/26 08:28:44;;;;;;;1.30;1.20;;;26.90;79.50;;;;;;4979295;28;20441;-47
2022/05/26 08:31:16;;;;;;;1.70;1.30;;;27.80;76.50;;;;;;4979666;28;20520;-44
2022/05/26 08:33:43;;;;;;;2.20;0.80;;;27.80;76.00;;;;;;4979571;28;20445;-47
2022/05/26 08:36:13;;;;;;;2.87;1.20;;;28.00;74.40;;;;;;4979638;28;20501;-44
2022/05/26 08:38:40;;;;;;;1.10;1.00;;;28.10;74.30;;;;;;4979515;28;20522;-49
2022/05/26 08:41:16;;;;;;;1.00;1.00;;;28.50;70.10;;;;;;4979672;28;20469;-44
2022/05/26 08:44:05;;;;;;;1.33;1.23;;;27.90;71.20;;;;;;4980007;28;20819;-48
2022/05/26 08:46:42;;;;;;;4.03;1.00;;;27.70;72.20;;;;;;4980024;28;20432;-42
2022/05/26 08:49:09;;;;;;;1.70;1.10;;;28.20;72.00;;;;;;4979705;28;20842;-46
2022/05/26 08:52:00;;;;;;;6.03;1.20;;;28.50;71.40;;;;;;4978860;28;20835;-42
2022/05/26 08:54:39;;;;;;;0.93;0.90;;;29.50;67.50;;;;;;4980834;28;20647;-44
2022/05/26 08:57:11;;;;;;;1.33;1.20;;;30.20;67.10;;;;;;4980266;28;20775;-46
2022/05/26 08:59:47;;;;;;;1.60;1.50;;;31.50;63.40;;;;;;4981083;28;20441;-52
2022/05/26 09:02:24;;;;;;;2.60;1.40;;;31.50;62.00;;;;;;4980517;28;20476;-45
2022/05/26 09:04:54;;;;;;;1.50;1.40;;;32.20;61.80;;;;;;4978025;28;20519;-41
2022/05/26 09:13:12;;;;;;;5.60;1.73;;;31.10;60.90;;;;;;4979376;28;20460;-45
2022/05/26 09:15:40;;;;;;;1.27;1.10;;;30.80;63.50;;;;;;4979967;28;20620;-48
2022/05/26 09:18:11;;;;;;;2.00;1.00;;;29.70;64.10;;;;;;4979943;28;20444;-46
2022/05/26 09:20:41;;;;;;;1.50;1.20;;;28.70;66.10;;;;;;4979489;28;20446;-42
2022/05/26 09:23:15;;;;;;;0.73;0.73;;;27.10;68.70;;;;;;4978344;28;20485;-44
2022/05/26 09:26:08;;;;;;;1.73;1.00;;;26.20;71.90;;;;;;4978551;28;20631;-44
2022/05/26 09:28:52;;;;;;;3.33;2.10;;;25.50;76.00;;;;;;4978688;28;20740;-43
2022/05/26 09:31:31;;;;;;;2.40;0.83;;;25.20;78.80;;;;;;4978763;28;20586;-46
2022/05/26 09:34:01;;;;;;;0.90;0.80;;;25.40;79.60;;;;;;4978292;28;20765;-45
2022/05/26 09:36:36;;;;;;;1.50;1.00;;;25.20;83.10;;;;;;4978684;28;20516;-48
2022/05/26 09:39:05;;;;;;;1.23;1.13;;;25.20;82.90;;;;;;4978401;28;20483;-45
2022/05/26 09:41:44;;;;;;;1.43;0.97;;;25.00;83.10;;;;;;4978857;28;20899;-42
2022/05/26 09:44:44;;;;;;;1.13;0.90;;;24.70;85.50;;;;;;4978167;28;20432;-47
2022/05/26 09:47:29;;;;;;;0.80;0.77;;;24.60;85.50;;;;;;4978897;28;20443;-47
2022/05/26 09:49:59;;;;;;;1.87;0.77;;;25.00;90.20;;;;;;4978124;28;20535;-51
2022/05/26 09:52:37;;;;;;;1.10;1.00;;;25.20;84.70;;;;;;4978641;28;20456;-43
2022/05/26 09:55:14;;;;;;;1.20;1.10;;;25.10;86.20;;;;;;4977972;28;20478;-46
2022/05/26 09:57:42;;;;;;;1.50;1.40;;;25.00;87.00;;;;;;4979062;28;20771;-45
2022/05/26 10:00:40;;;;;;;1.03;0.93;;;25.00;87.40;;;;;;4981077;28;20450;-47
2022/05/26 10:03:22;;;;;;;1.77;1.10;;;24.90;87.20;;;;;;4977534;28;20494;-46
2022/05/26 10:06:03;;;;;;;1.00;0.90;;;25.10;89.30;;;;;;4981504;28;20432;-45
2022/05/26 10:08:46;;;;;;;1.53;1.10;;;25.00;89.20;;;;;;4979724;28;20467;-44
2022/05/26 10:11:22;;;;;;;1.00;0.90;;;25.20;88.20;;;;;;4978410;28;20534;-47
2022/05/26 10:14:30;;;;;;;1.00;0.87;;;25.50;86.80;;;;;;4978831;28;20444;-49
2022/05/26 10:17:06;;;;;;;0.80;0.80;;;25.80;85.40;;;;;;4975513;28;20675;-49
2022/05/26 10:20:03;;;;;;;1.60;1.20;;;25.70;84.40;;;;;;4978727;28;20483;-46
2022/05/26 10:22:44;;;;;;;0.93;0.83;;;26.10;86.00;;;;;;4980346;28;20484;-49
2022/05/26 10:25:21;;;;;;;2.30;1.60;;;26.40;83.40;;;;;;4979752;28;20495;-45
2022/05/26 10:28:10;;;;;;;6.23;0.90;;;26.10;82.30;;;;;;4978902;28;20515;-42
2022/05/26 10:30:49;;;;;;;1.83;1.10;;;25.50;86.40;;;;;;4978189;28;20459;-41
2022/05/26 10:33:23;;;;;;;0.70;0.70;;;25.30;86.10;;;;;;4977952;28;20443;-43
2022/05/26 10:36:24;;;;;;;3.40;1.20;;;25.20;87.80;;;;;;4978638;28;20443;-45
2022/05/26 10:38:58;;;;;;;1.30;1.17;;;25.20;85.00;;;;;;4978284;28;20506;-43
2022/05/26 10:41:38;;;;;;;2.43;1.40;;;24.90;87.20;;;;;;4978092;28;20487;-46
2022/05/26 10:44:13;;;;;;;2.10;1.37;;;25.20;88.40;;;;;;4978126;28;20502;-40
2022/05/26 10:46:48;;;;;;;1.03;0.80;;;25.30;87.40;;;;;;4978637;28;20882;-49
2022/05/26 10:49:47;;;;;;;2.43;1.50;;;25.60;87.50;;;;;;4978491;28;20436;-44
2022/05/26 10:52:43;;;;;;;2.27;0.80;;;25.40;86.90;;;;;;4976679;28;20849;-45
2022/05/26 10:55:14;;;;;;;0.83;0.83;;;24.90;88.00;;;;;;4968652;28;20774;-44
2022/05/26 10:57:48;;;;;;;1.60;0.70;;;24.80;90.60;;;;;;4961197;28;20429;-50
2022/05/26 11:00:28;;;;;;;1.40;0.97;;;24.40;89.70;;;;;;4978106;28;20420;-44
2022/05/26 11:03:35;;;;;;;2.03;0.93;;;24.40;91.30;;;;;;4977933;28;20454;-47
2022/05/26 11:06:07;;;;;;;0.80;0.80;;;24.60;90.50;;;;;;4977389;28;20475;-48
2022/05/26 11:08:40;;;;;;;1.43;1.13;;;24.20;91.00;;;;;;4977738;28;20415;-43
2022/05/26 11:11:10;;;;;;;1.10;0.77;;;24.00;91.40;;;;;;4977230;28;20448;-46
2022/05/26 11:14:02;;;;;;;1.50;1.40;;;23.90;92.40;;;;;;4995264;28;20523;-46
2022/05/26 11:19:42;;;;;;;0.83;0.80;;;24.10;91.30;;;;;;4999076;28;20494;-45
2022/05/26 11:22:14;;;;;;;1.20;0.97;;;23.90;91.70;;;;;;4987447;28;20442;-46
2022/05/26 11:24:47;;;;;;;1.77;0.97;;;23.90;91.20;;;;;;4978714;28;21105;-50
2022/05/26 11:27:36;;;;;;;1.97;0.93;;;23.90;90.50;;;;;;4993104;28;20836;-44
2022/05/26 11:36:33;;;;;;;3.90;0.70;;;24.10;91.50;;;;;;4996054;28;20507;-50
2022/05/26 11:39:06;;;;;;;4.20;1.57;;;24.20;91.90;;;;;;4995421;28;20421;-43
2022/05/26 11:41:47;;;;;;;1.47;0.90;;;24.10;92.00;;;;;;4995675;28;20447;-42
2022/05/26 11:44:51;;;;;;;2.53;0.90;;;23.90;92.70;;;;;;4996007;28;20642;-43
2022/05/26 11:47:48;;;;;;;1.27;1.17;;;24.10;93.00;;;;;;4995722;28;20435;-45
2022/05/26 11:50:42;;;;;;;0.90;0.63;;;24.20;91.00;;;;;;4995273;28;20522;-41
2022/05/26 11:53:45;;;;;;;1.27;0.80;;;23.90;88.60;;;;;;4995594;28;20535;-41
2022/05/26 11:56:24;;;;;;;1.03;1.03;;;23.50;90.50;;;;;;4995242;28;20447;-49
2022/05/26 11:59:28;;;;;;;7.03;1.00;;;23.50;91.50;;;;;;4989257;28;20635;-44
2022/05/26 12:01:59;;;;;;;1.07;0.73;;;23.40;92.30;;;;;;4975724;28;20467;-43
2022/05/26 12:04:31;;;;;;;0.90;0.90;;;23.70;91.90;;;;;;4981768;28;20517;-42
2022/05/26 12:07:25;;;;;;;1.23;1.13;;;24.20;91.10;;;;;;4996129;28;20513;-48
2022/05/26 12:09:57;;;;;;;1.57;1.10;;;24.60;91.10;;;;;;4976607;28;20443;-44
2022/05/26 12:12:35;;;;;;;4.53;1.10;;;25.20;90.40;;;;;;4980589;28;20526;-44
2022/05/26 12:15:26;;;;;;;1.00;0.90;;;25.00;86.80;;;;;;4987241;28;20511;-46
2022/05/26 12:18:00;;;;;;;1.10;1.00;;;24.60;86.80;;;;;;4991773;28;20432;-43
2022/05/26 12:20:30;;;;;;;2.73;0.80;;;24.20;88.90;;;;;;4975527;28;20456;-49
2022/05/26 12:23:03;;;;;;;1.23;0.97;;;24.00;90.00;;;;;;4974385;28;20458;-48
2022/05/26 12:25:33;;;;;;;2.03;1.93;;;23.70;91.40;;;;;;4976301;28;20448;-44
2022/05/26 12:28:23;;;;;;;2.40;1.00;;;23.70;90.80;;;;;;4977876;28;20543;-45
2022/05/26 12:30:52;;;;;;;2.67;1.00;;;23.40;90.80;;;;;;4979847;28;20436;-45
2022/05/26 12:33:19;;;;;;;4.00;1.50;;;23.30;91.70;;;;;;4979650;28;20751;-47
2022/05/26 12:36:12;;;;;;;1.63;1.53;;;23.30;92.40;;;;;;4976833;28;20826;-40
2022/05/26 12:39:14;;;;;;;4.43;0.90;;;23.50;91.70;;;;;;4991230;28;20417;-47
2022/05/26 12:42:05;;;;;;;2.23;1.00;;;23.60;88.80;;;;;;4986108;28;20863;-46
2022/05/26 12:44:42;;;;;;;0.60;0.60;;;23.70;90.60;;;;;;4992493;28;20482;-46
2022/05/26 12:47:36;;;;;;;1.63;1.43;;;23.80;87.60;;;;;;4998520;28;20603;-45
2022/05/26 12:50:14;;;;;;;1.10;1.00;;;23.70;90.20;;;;;;4998672;28;20417;-47
2022/05/26 12:52:44;;;;;;;1.07;0.97;;;23.90;90.20;;;;;;4998960;28;20483;-46
2022/05/26 12:55:29;;;;;;;1.93;0.97;;;24.40;88.20;;;;;;4998908;28;20515;-44
2022/05/26 12:58:04;;;;;;;1.13;0.83;;;24.20;87.40;;;;;;4998013;28;20813;-46
2022/05/26 13:00:42;;;;;;;1.10;1.00;;;23.70;89.70;;;;;;4998483;28;20434;-48
2022/05/26 13:03:19;;;;;;;7.83;1.37;;;23.50;90.30;;;;;;4996871;28;20561;-45
2022/05/26 13:05:52;;;;;;;0.70;0.70;;;23.80;90.20;;;;;;4979168;28;20503;-42
2022/05/26 13:08:23;;;;;;;1.57;0.83;;;24.30;89.60;;;;;;4978715;28;20539;-43
2022/05/26 13:10:54;;;;;;;1.10;1.00;;;24.60;88.80;;;;;;4996040;28;20624;-44
2022/05/26 13:13:40;;;;;;;1.10;1.00;;;24.70;88.90;;;;;;4997804;28;20447;-44
2022/05/26 13:16:41;;;;;;;2.30;1.73;;;24.40;89.00;;;;;;4997495;28;20477;-45
2022/05/26 13:19:11;;;;;;;1.13;1.03;;;24.10;89.70;;;;;;4969523;28;20434;-45
2022/05/26 13:21:41;;;;;;;0.83;0.83;;;24.10;89.40;;;;;;4978228;28;20445;-43
2022/05/26 13:24:25;;;;;;;1.73;0.73;;;24.10;89.40;;;;;;4979065;28;20457;-41
2022/05/26 13:27:01;;;;;;;1.20;0.77;;;23.90;90.40;;;;;;4978872;28;20410;-44
2022/05/26 13:29:31;;;;;;;1.13;0.77;;;23.90;89.30;;;;;;4978381;28;20744;-43
2022/05/26 13:34:51;;;;;;;1.77;1.17;;;24.20;88.80;;;;;;4998434;28;20447;-40
2022/05/26 13:37:28;;;;;;;1.40;0.80;;;24.20;89.20;;;;;;4997711;28;20449;-42
2022/05/26 13:40:12;;;;;;;1.20;1.03;;;24.30;90.10;;;;;;4997261;28;20703;-43
2022/05/26 13:42:45;;;;;;;0.83;0.83;;;24.10;90.10;;;;;;4995821;28;20682;-45
2022/05/26 13:45:25;;;;;;;1.00;0.90;;;23.80;90.90;;;;;;4996506;28;20440;-40
2022/05/26 13:48:30;;;;;;;0.77;0.77;;;23.60;90.70;;;;;;4996559;28;20897;-49
2022/05/26 13:51:17;;;;;;;4.93;1.37;;;23.60;91.00;;;;;;4996071;28;20518;-48
2022/05/26 13:53:49;;;;;;;1.57;1.00;;;23.50;90.90;;;;;;4991618;28;20426;-45
2022/05/26 13:56:26;;;;;;;1.10;1.00;;;23.30;91.40;;;;;;4997466;28;20758;-43
2022/05/26 13:58:57;;;;;;;1.00;0.80;;;23.10;92.30;;;;;;4994280;28;20451;-44
2022/05/26 14:01:26;;;;;;;0.80;0.80;;;22.70;91.80;;;;;;4988566;28;20535;-46
2022/05/26 14:04:01;;;;;;;1.03;0.90;;;22.50;92.80;;;;;;4999447;28;20462;-50